sensor_id;sensor_type;location;lat;lon;timestamp;pressure;altitude;pressure_sealevel;temperature;humidity
23867;BME280;12114;53.404;-1.502;2024-01-27T00:02:43;102278.09;;;5.12;100.00
23867;BME280;12114;53.404;-1.502;2024-01-27T00:05:27;102269.31;;;5.10;100.00
23867;BME280;12114;53.404;-1.502;2024-01-27T00:08:11;102272.03;;;5.05;100.00
23867;BME280;12114;53.404;-1.502;2024-01-27T00:10:55;102276.75;;;5.04;100.00
23867;BME280;12114;53.404;-1.502;2024-01-27T00:13:39;102272.34;;;4.98;100.00
23867;BME280;12114;53.404;-1.502;2024-01-27T00:16:23;102268.75;;;4.92;100.00
23867;BME280;12114;53.404;-1.502;2024-01-27T00:19:07;102271.81;;;4.86;100.00
23867;BME280;12114;53.404;-1.502;2024-01-27T00:21:51;102270.94;;;4.80;100.00
23867;BME280;12114;53.404;-1.502;2024-01-27T00:24:35;102263.25;;;4.77;100.00
23867;BME280;12114;53.404;-1.502;2024-01-27T00:27:20;102261.59;;;4.76;100.00
23867;BME280;12114;53.404;-1.502;2024-01-27T00:30:04;102267.09;;;4.66;100.00
23867;BME280;12114;53.404;-1.502;2024-01-27T00:32:48;102275.66;;;4.70;100.00
23867;BME280;12114;53.404;-1.502;2024-01-27T00:35:32;102279.50;;;4.64;100.00
23867;BME280;12114;53.404;-1.502;2024-01-27T00:38:16;102279.50;;;4.64;100.00
23867;BME280;12114;53.404;-1.502;2024-01-27T00:41:00;102279.50;;;4.64;100.00
23867;BME280;12114;53.404;-1.502;2024-01-27T00:43:45;102272.88;;;4.60;100.00
23867;BME280;12114;53.404;-1.502;2024-01-27T00:46:29;102267.91;;;4.52;100.00
23867;BME280;12114;53.404;-1.502;2024-01-27T00:49:13;102260.75;;;4.46;100.00
23867;BME280;12114;53.404;-1.502;2024-01-27T00:51:57;102254.13;;;4.36;100.00
23867;BME280;12114;53.404;-1.502;2024-01-27T00:54:41;102253.59;;;4.34;100.00
23867;BME280;12114;53.404;-1.502;2024-01-27T00:57:25;102262.66;;;4.35;100.00
23867;BME280;12114;53.404;-1.502;2024-01-27T01:00:09;102254.13;;;4.31;100.00
23867;BME280;12114;53.404;-1.502;2024-01-27T01:02:53;102268.44;;;4.33;100.00
23867;BME280;12114;53.404;-1.502;2024-01-27T01:05:37;102261.81;;;4.29;100.00
23867;BME280;12114;53.404;-1.502;2024-01-27T01:08:21;102269.53;;;4.32;100.00
23867;BME280;12114;53.404;-1.502;2024-01-27T01:11:05;102276.16;;;4.36;100.00
23867;BME280;12114;53.404;-1.502;2024-01-27T01:13:49;102272.03;;;4.39;100.00
23867;BME280;12114;53.404;-1.502;2024-01-27T01:16:33;102270.94;;;4.40;100.00
23867;BME280;12114;53.404;-1.502;2024-01-27T01:19:17;102266.81;;;4.37;100.00
23867;BME280;12114;53.404;-1.502;2024-01-27T01:22:01;102262.66;;;4.35;100.00
23867;BME280;12114;53.404;-1.502;2024-01-27T01:24:45;102270.34;;;4.33;100.00
23867;BME280;12114;53.404;-1.502;2024-01-27T01:27:29;102262.38;;;4.36;100.00
23867;BME280;12114;53.404;-1.502;2024-01-27T01:30:14;102277.81;;;4.37;100.00
23867;BME280;12114;53.404;-1.502;2024-01-27T01:32:58;102278.34;;;4.34;100.00
23867;BME280;12114;53.404;-1.502;2024-01-27T01:35:42;102276.13;;;4.26;100.00
23867;BME280;12114;53.404;-1.502;2024-01-27T01:38:26;102269.53;;;4.22;100.00
23867;BME280;12114;53.404;-1.502;2024-01-27T01:41:10;102279.97;;;4.30;100.00
23867;BME280;12114;53.404;-1.502;2024-01-27T01:43:54;102282.44;;;4.27;100.00
23867;BME280;12114;53.404;-1.502;2024-01-27T01:46:38;102273.38;;;4.21;100.00
23867;BME280;12114;53.404;-1.502;2024-01-27T01:49:22;102289.03;;;4.21;100.00
23867;BME280;12114;53.404;-1.502;2024-01-27T01:52:06;102279.69;;;4.32;100.00
23867;BME280;12114;53.404;-1.502;2024-01-27T01:54:51;102281.09;;;4.34;100.00
23867;BME280;12114;53.404;-1.502;2024-01-27T01:57:35;102271.72;;;4.35;100.00
23867;BME280;12114;53.404;-1.502;2024-01-27T02:00:20;102267.31;;;4.29;100.00
23867;BME280;12114;53.404;-1.502;2024-01-27T02:03:04;102268.16;;;4.25;100.00
23867;BME280;12114;53.404;-1.502;2024-01-27T02:05:47;102271.16;;;4.23;100.00
23867;BME280;12114;53.404;-1.502;2024-01-27T02:08:31;102275.81;;;4.23;100.00
23867;BME280;12114;53.404;-1.502;2024-01-27T02:11:16;102260.97;;;4.19;100.00
23867;BME280;12114;53.404;-1.502;2024-01-27T02:14:00;102255.44;;;4.14;100.00
23867;BME280;12114;53.404;-1.502;2024-01-27T02:16:44;102262.03;;;4.08;100.00
23867;BME280;12114;53.404;-1.502;2024-01-27T02:19:28;102262.84;;;3.98;100.00
23867;BME280;12114;53.404;-1.502;2024-01-27T02:22:12;102260.91;;;3.94;100.00
23867;BME280;12114;53.404;-1.502;2024-01-27T02:24:56;102264.47;;;3.94;100.00
23867;BME280;12114;53.404;-1.502;2024-01-27T02:27:40;102260.09;;;3.98;100.00
23867;BME280;12114;53.404;-1.502;2024-01-27T02:30:24;102258.19;;;4.04;100.00
23867;BME280;12114;53.404;-1.502;2024-01-27T02:33:08;102261.78;;;4.09;100.00
23867;BME280;12114;53.404;-1.502;2024-01-27T02:35:52;102240.06;;;4.13;100.00
23867;BME280;12114;53.404;-1.502;2024-01-27T02:38:36;102250.22;;;4.12;100.00
23867;BME280;12114;53.404;-1.502;2024-01-27T02:41:19;102257.09;;;4.10;100.00
23867;BME280;12114;53.404;-1.502;2024-01-27T02:44:04;102256.53;;;4.08;100.00
23867;BME280;12114;53.404;-1.502;2024-01-27T02:46:48;102250.78;;;4.04;100.00
23867;BME280;12114;53.404;-1.502;2024-01-27T02:49:32;102245.22;;;3.99;100.00
23867;BME280;12114;53.404;-1.502;2024-01-27T02:52:16;102241.41;;;4.00;100.00
23867;BME280;12114;53.404;-1.502;2024-01-27T02:55:00;102236.97;;;3.99;100.00
23867;BME280;12114;53.404;-1.502;2024-01-27T02:57:44;102242.19;;;3.96;100.00
23867;BME280;12114;53.404;-1.502;2024-01-27T03:00:28;102240.56;;;4.00;100.00
23867;BME280;12114;53.404;-1.502;2024-01-27T03:03:12;102237.53;;;3.96;100.00
23867;BME280;12114;53.404;-1.502;2024-01-27T03:05:56;102247.16;;;3.94;100.00
23867;BME280;12114;53.404;-1.502;2024-01-27T03:08:40;102251.81;;;3.93;100.00
23867;BME280;12114;53.404;-1.502;2024-01-27T03:11:24;102248.28;;;3.98;100.00
23867;BME280;12114;53.404;-1.502;2024-01-27T03:14:08;102254.06;;;4.06;100.00
23867;BME280;12114;53.404;-1.502;2024-01-27T03:16:54;102249.94;;;4.14;100.00
23867;BME280;12114;53.404;-1.502;2024-01-27T03:19:38;102249.16;;;4.13;100.00
23867;BME280;12114;53.404;-1.502;2024-01-27T03:22:22;102269.56;;;4.63;100.00
23867;BME280;12114;53.404;-1.502;2024-01-27T03:25:06;102272.88;;;5.05;100.00
23867;BME280;12114;53.404;-1.502;2024-01-27T03:27:50;102265.13;;;5.32;100.00
23867;BME280;12114;53.404;-1.502;2024-01-27T03:30:35;102256.53;;;5.49;100.00
23867;BME280;12114;53.404;-1.502;2024-01-27T03:33:18;102246.31;;;5.65;100.00
23867;BME280;12114;53.404;-1.502;2024-01-27T03:36:03;102250.09;;;5.79;100.00
23867;BME280;12114;53.404;-1.502;2024-01-27T03:38:52;102237.66;;;5.91;100.00
23867;BME280;12114;53.404;-1.502;2024-01-27T03:41:36;102230.97;;;6.08;100.00
23867;BME280;12114;53.404;-1.502;2024-01-27T03:44:20;102232.28;;;6.15;100.00
23867;BME280;12114;53.404;-1.502;2024-01-27T03:47:04;102229.72;;;6.29;100.00
23867;BME280;12114;53.404;-1.502;2024-01-27T03:49:48;102224.72;;;6.31;100.00
23867;BME280;12114;53.404;-1.502;2024-01-27T03:52:32;102231.09;;;6.26;100.00
23867;BME280;12114;53.404;-1.502;2024-01-27T03:55:16;102240.16;;;6.37;100.00
23867;BME280;12114;53.404;-1.502;2024-01-27T03:58:00;102241.25;;;6.41;100.00
23867;BME280;12114;53.404;-1.502;2024-01-27T04:00:44;102243.13;;;6.45;100.00
23867;BME280;12114;53.404;-1.502;2024-01-27T04:03:29;102241.44;;;6.49;100.00
23867;BME280;12114;53.404;-1.502;2024-01-27T04:06:13;102234.81;;;6.50;100.00
23867;BME280;12114;53.404;-1.502;2024-01-27T04:08:57;102242.53;;;6.53;100.00
23867;BME280;12114;53.404;-1.502;2024-01-27T04:11:41;102234.47;;;6.57;100.00
23867;BME280;12114;53.404;-1.502;2024-01-27T04:14:25;102236.31;;;6.72;100.00
23867;BME280;12114;53.404;-1.502;2024-01-27T04:17:09;102231.84;;;6.76;100.00
23867;BME280;12114;53.404;-1.502;2024-01-27T04:19:53;102222.59;;;6.90;100.00
23867;BME280;12114;53.404;-1.502;2024-01-27T04:22:37;102215.13;;;6.91;100.00
23867;BME280;12114;53.404;-1.502;2024-01-27T04:25:21;102215.03;;;7.01;100.00
23867;BME280;12114;53.404;-1.502;2024-01-27T04:28:05;102209.63;;;7.14;100.00
23867;BME280;12114;53.404;-1.502;2024-01-27T04:30:49;102211.22;;;7.21;100.00
23867;BME280;12114;53.404;-1.502;2024-01-27T04:33:33;102201.97;;;7.35;100.00
23867;BME280;12114;53.404;-1.502;2024-01-27T04:36:29;102193.69;;;7.35;100.00
23867;BME280;12114;53.404;-1.502;2024-01-27T04:39:13;102196.44;;;7.35;100.00
23867;BME280;12114;53.404;-1.502;2024-01-27T04:41:57;102182.03;;;7.38;100.00
23867;BME280;12114;53.404;-1.502;2024-01-27T04:44:41;102184.22;;;7.41;100.00
23867;BME280;12114;53.404;-1.502;2024-01-27T04:47:25;102180.97;;;7.34;100.00
23867;BME280;12114;53.404;-1.502;2024-01-27T04:50:09;102177.13;;;7.30;100.00
23867;BME280;12114;53.404;-1.502;2024-01-27T04:52:53;102179.06;;;7.30;100.00
23867;BME280;12114;53.404;-1.502;2024-01-27T04:55:37;102175.88;;;7.18;100.00
23867;BME280;12114;53.404;-1.502;2024-01-27T04:58:21;102179.47;;;7.18;100.00
23867;BME280;12114;53.404;-1.502;2024-01-27T05:01:05;102186.75;;;7.09;100.00
23867;BME280;12114;53.404;-1.502;2024-01-27T05:03:50;102191.00;;;7.01;100.00
23867;BME280;12114;53.404;-1.502;2024-01-27T05:06:34;102196.63;;;6.91;100.00
23867;BME280;12114;53.404;-1.502;2024-01-27T05:09:18;102201.63;;;6.89;100.00
23867;BME280;12114;53.404;-1.502;2024-01-27T05:12:02;102193.09;;;6.86;100.00
23867;BME280;12114;53.404;-1.502;2024-01-27T05:14:46;102192.06;;;6.77;100.00
23867;BME280;12114;53.404;-1.502;2024-01-27T05:17:30;102192.91;;;6.72;100.00
23867;BME280;12114;53.404;-1.502;2024-01-27T05:20:14;102189.97;;;6.64;100.00
23867;BME280;12114;53.404;-1.502;2024-01-27T05:22:58;102195.81;;;6.57;100.00
23867;BME280;12114;53.404;-1.502;2024-01-27T05:25:41;102199.22;;;6.49;100.00
23867;BME280;12114;53.404;-1.502;2024-01-27T05:28:25;102210.31;;;6.39;100.00
23867;BME280;12114;53.404;-1.502;2024-01-27T05:31:09;102203.47;;;6.31;100.00
23867;BME280;12114;53.404;-1.502;2024-01-27T05:33:53;102206.03;;;6.23;100.00
23867;BME280;12114;53.404;-1.502;2024-01-27T05:36:38;102207.97;;;6.17;100.00
23867;BME280;12114;53.404;-1.502;2024-01-27T05:39:22;102207.50;;;6.10;100.00
23867;BME280;12114;53.404;-1.502;2024-01-27T05:42:06;102205.31;;;6.07;100.00
23867;BME280;12114;53.404;-1.502;2024-01-27T05:44:50;102200.94;;;5.96;100.00
23867;BME280;12114;53.404;-1.502;2024-01-27T05:47:34;102206.53;;;5.86;100.00
23867;BME280;12114;53.404;-1.502;2024-01-27T05:50:18;102204.59;;;5.86;100.00
23867;BME280;12114;53.404;-1.502;2024-01-27T05:53:02;102206.75;;;5.84;100.00
23867;BME280;12114;53.404;-1.502;2024-01-27T05:55:46;102207.59;;;5.85;100.00
23867;BME280;12114;53.404;-1.502;2024-01-27T05:58:30;102210.91;;;5.92;100.00
23867;BME280;12114;53.404;-1.502;2024-01-27T06:01:14;102210.03;;;6.01;100.00
23867;BME280;12114;53.404;-1.502;2024-01-27T06:03:58;102200.34;;;6.04;100.00
23867;BME280;12114;53.404;-1.502;2024-01-27T06:06:42;102201.72;;;6.07;100.00
23867;BME280;12114;53.404;-1.502;2024-01-27T06:09:26;102202.53;;;6.07;100.00
23867;BME280;12114;53.404;-1.502;2024-01-27T06:12:10;102209.72;;;6.03;100.00
23867;BME280;12114;53.404;-1.502;2024-01-27T06:14:54;102203.38;;;6.02;100.00
23867;BME280;12114;53.404;-1.502;2024-01-27T06:17:38;102197.03;;;6.02;100.00
23867;BME280;12114;53.404;-1.502;2024-01-27T06:20:22;102201.97;;;6.05;100.00
23867;BME280;12114;53.404;-1.502;2024-01-27T06:23:07;102206.44;;;6.01;100.00
23867;BME280;12114;53.404;-1.502;2024-01-27T06:25:51;102202.81;;;6.11;100.00
23867;BME280;12114;53.404;-1.502;2024-01-27T06:28:35;102219.06;;;6.12;100.00
23867;BME280;12114;53.404;-1.502;2024-01-27T06:31:20;102218.78;;;6.14;100.00
23867;BME280;12114;53.404;-1.502;2024-01-27T06:34:04;102217.09;;;6.18;100.00
23867;BME280;12114;53.404;-1.502;2024-01-27T06:36:48;102214.88;;;6.20;100.00
23867;BME280;12114;53.404;-1.502;2024-01-27T06:39:32;102215.41;;;6.22;100.00
23867;BME280;12114;53.404;-1.502;2024-01-27T06:42:16;102220.88;;;6.27;100.00
23867;BME280;12114;53.404;-1.502;2024-01-27T06:44:59;102221.72;;;6.27;100.00
23867;BME280;12114;53.404;-1.502;2024-01-27T06:47:43;102225.84;;;6.30;100.00
23867;BME280;12114;53.404;-1.502;2024-01-27T06:50:27;102220.03;;;6.31;100.00
23867;BME280;12114;53.404;-1.502;2024-01-27T06:53:11;102229.94;;;6.37;100.00
23867;BME280;12114;53.404;-1.502;2024-01-27T06:55:55;102228.22;;;6.41;100.00
23867;BME280;12114;53.404;-1.502;2024-01-27T06:58:39;102224.63;;;6.46;100.00
23867;BME280;12114;53.404;-1.502;2024-01-27T07:01:23;102216.34;;;6.46;100.00
23867;BME280;12114;53.404;-1.502;2024-01-27T07:04:07;102221.59;;;6.47;100.00
23867;BME280;12114;53.404;-1.502;2024-01-27T07:06:51;102209.16;;;6.45;100.00
23867;BME280;12114;53.404;-1.502;2024-01-27T07:09:35;102210.81;;;6.46;100.00
23867;BME280;12114;53.404;-1.502;2024-01-27T07:12:19;102199.72;;;6.51;100.00
23867;BME280;12114;53.404;-1.502;2024-01-27T07:15:03;102198.88;;;6.55;100.00
23867;BME280;12114;53.404;-1.502;2024-01-27T07:17:47;102201.59;;;6.60;100.00
23867;BME280;12114;53.404;-1.502;2024-01-27T07:20:31;102199.03;;;6.69;100.00
23867;BME280;12114;53.404;-1.502;2024-01-27T07:23:15;102205.09;;;6.71;100.00
23867;BME280;12114;53.404;-1.502;2024-01-27T07:25:59;102205.00;;;6.81;100.00
23867;BME280;12114;53.404;-1.502;2024-01-27T07:28:47;102206.06;;;6.85;100.00
23867;BME280;12114;53.404;-1.502;2024-01-27T07:31:30;102206.84;;;6.91;100.00
23867;BME280;12114;53.404;-1.502;2024-01-27T07:34:15;102207.63;;;6.96;100.00
23867;BME280;12114;53.404;-1.502;2024-01-27T07:36:58;102220.84;;;6.99;100.00
23867;BME280;12114;53.404;-1.502;2024-01-27T07:39:42;102210.53;;;7.10;100.00
23867;BME280;12114;53.404;-1.502;2024-01-27T07:42:26;102220.66;;;7.20;100.00
23867;BME280;12114;53.404;-1.502;2024-01-27T07:45:10;102210.66;;;7.24;100.00
23867;BME280;12114;53.404;-1.502;2024-01-27T07:47:54;102202.31;;;7.29;100.00
23867;BME280;12114;53.404;-1.502;2024-01-27T07:50:38;102200.91;;;7.31;100.00
23867;BME280;12114;53.404;-1.502;2024-01-27T07:53:22;102197.06;;;7.27;100.00
23867;BME280;12114;53.404;-1.502;2024-01-27T07:56:07;102202.00;;;7.30;100.00
23867;BME280;12114;53.404;-1.502;2024-01-27T07:58:51;102204.50;;;7.32;100.00
23867;BME280;12114;53.404;-1.502;2024-01-27T08:01:35;102212.66;;;7.42;100.00
23867;BME280;12114;53.404;-1.502;2024-01-27T08:04:19;102206.25;;;7.46;100.00
23867;BME280;12114;53.404;-1.502;2024-01-27T08:07:03;102203.16;;;7.53;100.00
23867;BME280;12114;53.404;-1.502;2024-01-27T08:09:52;102211.88;;;7.60;100.00
23867;BME280;12114;53.404;-1.502;2024-01-27T08:12:37;102207.66;;;7.67;100.00
23867;BME280;12114;53.404;-1.502;2024-01-27T08:15:22;102218.22;;;7.65;100.00
23867;BME280;12114;53.404;-1.502;2024-01-27T08:18:06;102202.94;;;7.68;100.00
23867;BME280;12114;53.404;-1.502;2024-01-27T08:20:50;102207.78;;;7.81;100.00
23867;BME280;12114;53.404;-1.502;2024-01-27T08:23:34;102197.31;;;7.78;100.00
23867;BME280;12114;53.404;-1.502;2024-01-27T08:26:17;102203.03;;;7.82;100.00
23867;BME280;12114;53.404;-1.502;2024-01-27T08:29:04;102195.63;;;7.77;100.00
23867;BME280;12114;53.404;-1.502;2024-01-27T08:31:48;102192.06;;;7.95;100.00
23867;BME280;12114;53.404;-1.502;2024-01-27T08:34:32;102197.00;;;7.98;100.00
23867;BME280;12114;53.404;-1.502;2024-01-27T08:37:20;102198.66;;;7.99;100.00
23867;BME280;12114;53.404;-1.502;2024-01-27T08:40:05;102194.53;;;7.97;100.00
23867;BME280;12114;53.404;-1.502;2024-01-27T08:42:49;102202.91;;;7.92;100.00
23867;BME280;12114;53.404;-1.502;2024-01-27T08:45:33;102208.69;;;7.95;100.00
23867;BME280;12114;53.404;-1.502;2024-01-27T08:48:17;102209.50;;;7.96;100.00
23867;BME280;12114;53.404;-1.502;2024-01-27T08:51:01;102202.22;;;8.00;100.00
23867;BME280;12114;53.404;-1.502;2024-01-27T08:53:45;102205.00;;;8.00;100.00
23867;BME280;12114;53.404;-1.502;2024-01-27T08:56:32;102208.00;;;8.03;100.00
23867;BME280;12114;53.404;-1.502;2024-01-27T08:59:16;102203.53;;;8.07;100.00
23867;BME280;12114;53.404;-1.502;2024-01-27T09:02:00;102196.28;;;8.11;100.00
23867;BME280;12114;53.404;-1.502;2024-01-27T09:04:44;102204.88;;;8.10;100.00
23867;BME280;12114;53.404;-1.502;2024-01-27T09:07:28;102196.28;;;8.11;100.00
23867;BME280;12114;53.404;-1.502;2024-01-27T09:10:12;102195.59;;;8.19;100.00
23867;BME280;12114;53.404;-1.502;2024-01-27T09:12:59;102198.59;;;8.23;100.00
23867;BME280;12114;53.404;-1.502;2024-01-27T09:15:42;102201.59;;;8.27;100.00
23867;BME280;12114;53.404;-1.502;2024-01-27T09:18:27;102199.59;;;8.32;100.00
23867;BME280;12114;53.404;-1.502;2024-01-27T09:21:11;102205.03;;;8.37;100.00
23867;BME280;12114;53.404;-1.502;2024-01-27T09:23:56;102200.09;;;8.34;100.00
23867;BME280;12114;53.404;-1.502;2024-01-27T09:26:40;102201.53;;;8.32;100.00
23867;BME280;12114;53.404;-1.502;2024-01-27T09:29:24;102207.31;;;8.35;100.00
23867;BME280;12114;53.404;-1.502;2024-01-27T09:32:08;102210.69;;;8.27;100.00
23867;BME280;12114;53.404;-1.502;2024-01-27T09:34:52;102205.72;;;8.29;100.00
23867;BME280;12114;53.404;-1.502;2024-01-27T09:37:37;102205.13;;;8.32;100.00
23867;BME280;12114;53.404;-1.502;2024-01-27T09:40:21;102204.38;;;8.27;100.00
23867;BME280;12114;53.404;-1.502;2024-01-27T09:43:05;102203.00;;;8.24;100.00
23867;BME280;12114;53.404;-1.502;2024-01-27T09:45:50;102211.84;;;8.26;100.00
23867;BME280;12114;53.404;-1.502;2024-01-27T09:48:35;102215.25;;;8.18;100.00
23867;BME280;12114;53.404;-1.502;2024-01-27T09:51:20;102219.69;;;8.19;100.00
23867;BME280;12114;53.404;-1.502;2024-01-27T09:54:04;102207.78;;;8.18;100.00
23867;BME280;12114;53.404;-1.502;2024-01-27T09:56:48;102221.13;;;8.16;100.00
23867;BME280;12114;53.404;-1.502;2024-01-27T09:59:34;102215.72;;;8.25;100.00
23867;BME280;12114;53.404;-1.502;2024-01-27T10:02:18;102217.16;;;8.22;100.00
23867;BME280;12114;53.404;-1.502;2024-01-27T10:05:04;102207.72;;;8.23;100.00
23867;BME280;12114;53.404;-1.502;2024-01-27T10:07:49;102216.81;;;8.29;100.00
23867;BME280;12114;53.404;-1.502;2024-01-27T10:10:33;102205.47;;;8.25;100.00
23867;BME280;12114;53.404;-1.502;2024-01-27T10:13:17;102203.19;;;8.33;100.00
23867;BME280;12114;53.404;-1.502;2024-01-27T10:16:08;102206.03;;;8.28;100.00
23867;BME280;12114;53.404;-1.502;2024-01-27T10:18:59;102210.81;;;8.41;100.00
23867;BME280;12114;53.404;-1.502;2024-01-27T10:21:46;102204.44;;;8.40;100.00
23867;BME280;12114;53.404;-1.502;2024-01-27T10:24:31;102215.63;;;8.35;100.00
23867;BME280;12114;53.404;-1.502;2024-01-27T10:27:16;102215.97;;;8.47;100.00
23867;BME280;12114;53.404;-1.502;2024-01-27T10:30:02;102218.75;;;8.47;100.00
23867;BME280;12114;53.404;-1.502;2024-01-27T10:32:56;102215.00;;;8.57;100.00
23867;BME280;12114;53.404;-1.502;2024-01-27T10:35:41;102215.72;;;8.62;100.00
23867;BME280;12114;53.404;-1.502;2024-01-27T10:38:35;102214.53;;;8.68;100.00
23867;BME280;12114;53.404;-1.502;2024-01-27T10:41:23;102213.66;;;8.87;100.00
23867;BME280;12114;53.404;-1.502;2024-01-27T10:44:12;102210.28;;;8.90;100.00
23867;BME280;12114;53.404;-1.502;2024-01-27T10:46:58;102196.72;;;8.88;100.00
23867;BME280;12114;53.404;-1.502;2024-01-27T10:49:45;102188.59;;;8.92;100.00
23867;BME280;12114;53.404;-1.502;2024-01-27T10:52:31;102198.88;;;8.91;100.00
23867;BME280;12114;53.404;-1.502;2024-01-27T10:55:16;102192.59;;;8.86;100.00
23867;BME280;12114;53.404;-1.502;2024-01-27T10:58:00;102193.44;;;8.86;100.00
23867;BME280;12114;53.404;-1.502;2024-01-27T11:00:45;102181.72;;;8.89;100.00
23867;BME280;12114;53.404;-1.502;2024-01-27T11:03:32;102184.19;;;8.91;100.00
23867;BME280;12114;53.404;-1.502;2024-01-27T11:06:16;102188.38;;;8.88;100.00
23867;BME280;12114;53.404;-1.502;2024-01-27T11:09:02;102187.06;;;8.86;100.00
23867;BME280;12114;53.404;-1.502;2024-01-27T11:11:49;102182.25;;;8.91;100.00
23867;BME280;12114;53.404;-1.502;2024-01-27T11:14:33;102182.34;;;8.86;100.00
23867;BME280;12114;53.404;-1.502;2024-01-27T11:17:17;102186.94;;;8.91;100.00
23867;BME280;12114;53.404;-1.502;2024-01-27T11:20:02;102185.66;;;9.02;100.00
23867;BME280;12114;53.404;-1.502;2024-01-27T11:22:47;102182.09;;;9.15;100.00
23867;BME280;12114;53.404;-1.502;2024-01-27T11:25:33;102180.25;;;9.24;100.00
23867;BME280;12114;53.404;-1.502;2024-01-27T11:28:17;102166.28;;;9.29;100.00
23867;BME280;12114;53.404;-1.502;2024-01-27T11:31:04;102166.47;;;9.46;100.00
23867;BME280;12114;53.404;-1.502;2024-01-27T11:33:50;102159.28;;;9.45;100.00
23867;BME280;12114;53.404;-1.502;2024-01-27T11:36:35;102146.75;;;9.48;100.00
23867;BME280;12114;53.404;-1.502;2024-01-27T11:39:29;102150.03;;;9.50;100.00
23867;BME280;12114;53.404;-1.502;2024-01-27T11:42:13;102155.38;;;9.46;100.00
23867;BME280;12114;53.404;-1.502;2024-01-27T11:44:58;102160.09;;;9.46;100.00
23867;BME280;12114;53.404;-1.502;2024-01-27T11:47:42;102155.38;;;9.46;100.00
23867;BME280;12114;53.404;-1.502;2024-01-27T11:50:26;102163.59;;;9.38;100.00
23867;BME280;12114;53.404;-1.502;2024-01-27T11:53:11;102153.75;;;9.31;100.00
23867;BME280;12114;53.404;-1.502;2024-01-27T11:55:55;102143.16;;;9.33;100.00
23867;BME280;12114;53.404;-1.502;2024-01-27T11:58:45;102139.66;;;9.28;100.00
23867;BME280;12114;53.404;-1.502;2024-01-27T12:01:29;102136.16;;;9.22;100.00
23867;BME280;12114;53.404;-1.502;2024-01-27T12:04:13;102133.09;;;9.24;100.00
23867;BME280;12114;53.404;-1.502;2024-01-27T12:06:58;102118.41;;;9.23;100.00
23867;BME280;12114;53.404;-1.502;2024-01-27T12:09:42;102108.16;;;9.24;100.00
23867;BME280;12114;53.404;-1.502;2024-01-27T12:12:26;102109.56;;;9.35;100.00
23867;BME280;12114;53.404;-1.502;2024-01-27T12:15:10;102111.00;;;9.32;100.00
23867;BME280;12114;53.404;-1.502;2024-01-27T12:17:54;102093.44;;;9.23;100.00
23867;BME280;12114;53.404;-1.502;2024-01-27T12:20:38;102101.44;;;9.25;100.00
23867;BME280;12114;53.404;-1.502;2024-01-27T12:23:22;102109.16;;;9.14;100.00
23867;BME280;12114;53.404;-1.502;2024-01-27T12:26:06;102097.84;;;9.24;100.00
23867;BME280;12114;53.404;-1.502;2024-01-27T12:28:57;102105.16;;;9.20;100.00
23867;BME280;12114;53.404;-1.502;2024-01-27T12:31:42;102102.47;;;9.29;100.00
23867;BME280;12114;53.404;-1.502;2024-01-27T12:34:26;102094.38;;;9.32;100.00
23867;BME280;12114;53.404;-1.502;2024-01-27T12:37:11;102085.00;;;9.28;100.00
23867;BME280;12114;53.404;-1.502;2024-01-27T12:39:55;102083.97;;;9.38;100.00
23867;BME280;12114;53.404;-1.502;2024-01-27T12:42:39;102071.84;;;9.34;100.00
23867;BME280;12114;53.404;-1.502;2024-01-27T12:45:23;102061.66;;;9.43;100.00
23867;BME280;12114;53.404;-1.502;2024-01-27T12:48:07;102058.06;;;9.43;100.00
23867;BME280;12114;53.404;-1.502;2024-01-27T12:50:51;102052.22;;;9.44;100.00
23867;BME280;12114;53.404;-1.502;2024-01-27T12:53:37;102061.44;;;9.53;100.00
23867;BME280;12114;53.404;-1.502;2024-01-27T12:56:22;102061.31;;;9.58;100.00
23867;BME280;12114;53.404;-1.502;2024-01-27T12:59:06;102069.50;;;9.77;100.00
23867;BME280;12114;53.404;-1.502;2024-01-27T13:01:51;102070.38;;;9.86;100.00
23867;BME280;12114;53.404;-1.502;2024-01-27T13:04:35;102055.19;;;9.83;100.00
23867;BME280;12114;53.404;-1.502;2024-01-27T13:07:19;102053.59;;;9.91;100.00
23867;BME280;12114;53.404;-1.502;2024-01-27T13:10:03;102053.53;;;9.82;100.00
23867;BME280;12114;53.404;-1.502;2024-01-27T13:12:47;102050.13;;;9.85;100.00
23867;BME280;12114;53.404;-1.502;2024-01-27T13:15:31;102046.53;;;9.85;100.00
23867;BME280;12114;53.404;-1.502;2024-01-27T13:18:15;102036.16;;;9.91;100.00
23867;BME280;12114;53.404;-1.502;2024-01-27T13:20:59;102038.44;;;9.97;100.00
23867;BME280;12114;53.404;-1.502;2024-01-27T13:23:43;102026.28;;;10.07;100.00
23867;BME280;12114;53.404;-1.502;2024-01-27T13:26:27;102019.34;;;9.96;100.00
23867;BME280;12114;53.404;-1.502;2024-01-27T13:29:11;102021.69;;;10.02;100.00
23867;BME280;12114;53.404;-1.502;2024-01-27T13:31:55;102002.75;;;10.04;100.00
23867;BME280;12114;53.404;-1.502;2024-01-27T13:34:42;102003.38;;;10.01;100.00
23867;BME280;12114;53.404;-1.502;2024-01-27T13:37:26;101992.47;;;10.05;100.00
23867;BME280;12114;53.404;-1.502;2024-01-27T13:40:11;101994.25;;;10.09;100.00
23867;BME280;12114;53.404;-1.502;2024-01-27T13:42:55;101978.75;;;10.08;100.00
23867;BME280;12114;53.404;-1.502;2024-01-27T13:45:41;101986.75;;;10.10;100.00
23867;BME280;12114;53.404;-1.502;2024-01-27T13:48:25;101998.28;;;10.17;100.00
23867;BME280;12114;53.404;-1.502;2024-01-27T13:51:10;101993.56;;;10.17;100.00
23867;BME280;12114;53.404;-1.502;2024-01-27T13:53:54;101994.59;;;10.30;100.00
23867;BME280;12114;53.404;-1.502;2024-01-27T13:56:38;101988.91;;;10.35;100.00
23867;BME280;12114;53.404;-1.502;2024-01-27T13:59:22;101990.78;;;10.48;100.00
23867;BME280;12114;53.404;-1.502;2024-01-27T14:02:06;101990.63;;;10.53;100.00
23867;BME280;12114;53.404;-1.502;2024-01-27T14:04:49;101983.25;;;10.49;100.00
23867;BME280;12114;53.404;-1.502;2024-01-27T14:07:33;101979.03;;;10.60;100.00
23867;BME280;12114;53.404;-1.502;2024-01-27T14:10:17;101969.22;;;10.54;100.00